Terminal Aerodrome Forecast
Issued by NWS

Home | Current Version | Previous Version | Text Only | Print | Product List | Glossary On
Versions: 1 2 3 4 5 6 7 8 9 10 11 12 13 14 15 16 17 18 19 20 21 22 23 24
000
FTUS45 KFGZ 011800 AAA
TAFGCN
TAF AMD
KGCN 011808Z 0118/0218 21007KT 1/4SM SN FG OVC006
     FM012100 13010KT 5SM -SHRASN BR SCT010 OVC020
     FM020900 20010G20KT 1/4SM SN FG OVC008=

USA.gov is the U.S. government's official web portal to all federal, state and local government web resources and services.